Time;durP1;ratioP1;P1;durP2;ratioP2;P2;SDS_P1;SDS_P2;PMS_P1;PMS_P2;Temp;Humidity;BMP_temperature;BMP_pressure;BME280_temperature;BME280_humidity;BME280_pressure;Samples;Min_cycle;Max_cycle;Signal;HPM_P1;HPM_P2
2022/07/19 00:01:24;;;;;;;4.72;2.90;;;20.40;99.90;;;;;;5030955;28;20032;-60
2022/07/19 00:03:49;;;;;;;9.25;3.10;;;20.30;99.90;;;;;;5027598;28;20537;-61
2022/07/19 00:06:15;;;;;;;5.93;2.78;;;20.50;99.90;;;;;;5026076;28;20025;-62
2022/07/19 00:08:40;;;;;;;5.88;2.40;;;20.30;99.90;;;;;;5027648;28;20025;-62
2022/07/19 00:11:06;;;;;;;6.90;2.40;;;20.30;99.90;;;;;;5029498;28;20203;-61
2022/07/19 00:13:32;;;;;;;4.97;2.60;;;20.40;99.90;;;;;;5028342;28;20083;-61
2022/07/19 00:15:58;;;;;;;5.57;2.92;;;20.20;99.90;;;;;;5034865;28;20116;-61
2022/07/19 00:18:23;;;;;;;10.73;2.80;;;20.30;99.90;;;;;;5047909;28;20630;-60
2022/07/19 00:20:49;;;;;;;5.45;2.67;;;20.20;99.90;;;;;;5033371;28;20033;-61
2022/07/19 00:23:14;;;;;;;5.05;2.78;;;20.10;99.90;;;;;;5025268;28;20080;-61
2022/07/19 00:25:40;;;;;;;4.85;2.75;;;20.20;99.90;;;;;;5031725;28;20029;-61
2022/07/19 00:28:05;;;;;;;7.32;2.88;;;20.10;99.90;;;;;;5032676;28;20358;-61
2022/07/19 00:30:31;;;;;;;6.18;3.03;;;20.10;99.90;;;;;;5035885;28;20056;-60
2022/07/19 00:32:57;;;;;;;5.35;3.20;;;20.00;99.90;;;;;;5024121;28;20069;-61
2022/07/19 00:35:23;;;;;;;5.22;2.65;;;;;;;;;;5027778;28;20037;-62
2022/07/19 00:37:49;;;;;;;5.85;2.88;;;19.90;99.90;;;;;;5024931;28;20110;-61
2022/07/19 00:40:23;;;;;;;6.53;3.00;;;20.10;99.90;;;;;;5028700;28;20084;-62
2022/07/19 00:42:51;;;;;;;7.32;3.33;;;19.90;99.90;;;;;;5037396;28;20943;-60
2022/07/19 00:45:16;;;;;;;7.47;3.00;;;20.00;99.90;;;;;;5028177;28;20101;-61
2022/07/19 00:47:42;;;;;;;4.82;2.80;;;19.80;99.90;;;;;;5039598;28;20107;-62
2022/07/19 00:50:08;;;;;;;6.55;3.03;;;19.90;99.90;;;;;;5028169;28;20034;-60
2022/07/19 00:52:35;;;;;;;5.35;2.95;;;20.00;99.90;;;;;;5028122;28;20025;-61
2022/07/19 00:55:00;;;;;;;5.55;3.03;;;20.10;99.90;;;;;;5025854;28;20105;-61
2022/07/19 00:57:27;;;;;;;5.63;3.05;;;20.00;99.90;;;;;;5038163;28;20155;-61
2022/07/19 00:59:54;;;;;;;5.82;2.88;;;19.80;99.90;;;;;;5026495;28;20501;-61
2022/07/19 01:02:20;;;;;;;5.53;2.70;;;19.80;99.90;;;;;;5031839;28;20037;-60
2022/07/19 01:04:45;;;;;;;6.75;3.30;;;19.80;99.90;;;;;;5025622;28;20366;-61
2022/07/19 01:07:12;;;;;;;7.25;2.88;;;19.80;99.90;;;;;;5028703;28;20450;-60
2022/07/19 01:09:39;;;;;;;5.70;2.92;;;19.80;99.90;;;;;;5025589;28;20029;-62
2022/07/19 01:12:06;;;;;;;4.65;3.03;;;19.80;99.90;;;;;;5029266;28;20025;-61
2022/07/19 01:14:31;;;;;;;4.13;2.90;;;19.80;99.90;;;;;;5029435;28;20029;-61
2022/07/19 01:17:00;;;;;;;7.70;2.80;;;;;;;;;;5038002;28;20021;-61
2022/07/19 01:19:27;;;;;;;3.35;2.72;;;;;;;;;;5039306;28;20055;-61
2022/07/19 01:21:52;;;;;;;5.63;2.85;;;19.50;99.90;;;;;;5030535;28;20064;-61
2022/07/19 01:24:18;;;;;;;6.15;3.10;;;19.50;99.90;;;;;;5025528;28;20072;-60
2022/07/19 01:26:44;;;;;;;5.00;3.05;;;19.60;99.90;;;;;;5041629;28;20025;-60
2022/07/19 01:29:14;;;;;;;5.38;2.90;;;19.50;99.90;;;;;;5029609;28;20037;-60
2022/07/19 01:31:40;;;;;;;6.68;3.08;;;19.60;99.90;;;;;;5026787;28;20033;-61
2022/07/19 01:34:05;;;;;;;7.00;2.90;;;19.60;99.90;;;;;;5033554;28;20429;-61
2022/07/19 01:36:31;;;;;;;4.35;2.90;;;19.50;99.90;;;;;;5028575;28;20600;-61
2022/07/19 01:38:56;;;;;;;5.18;3.10;;;19.50;99.90;;;;;;5029141;28;20025;-61
2022/07/19 01:41:22;;;;;;;6.18;3.30;;;19.40;99.90;;;;;;5030509;28;20683;-61
2022/07/19 01:43:48;;;;;;;5.05;2.83;;;19.40;99.90;;;;;;5040972;28;20633;-62
2022/07/19 01:46:13;;;;;;;6.55;3.13;;;19.40;99.90;;;;;;5028533;28;20576;-61
2022/07/19 01:48:39;;;;;;;5.43;3.28;;;19.50;99.90;;;;;;5039603;28;20079;-61
2022/07/19 01:51:05;;;;;;;5.20;3.25;;;19.20;99.90;;;;;;5026646;28;20014;-61
2022/07/19 01:53:30;;;;;;;4.70;2.80;;;19.30;99.90;;;;;;5032506;28;20044;-61
2022/07/19 01:55:56;;;;;;;5.45;2.88;;;19.30;99.90;;;;;;5036154;28;20476;-61
2022/07/19 01:58:21;;;;;;;5.15;3.25;;;19.10;99.90;;;;;;5036072;28;20026;-61
2022/07/19 02:00:47;;;;;;;5.32;3.15;;;19.30;99.90;;;;;;5027698;28;20053;-60
2022/07/19 02:03:13;;;;;;;6.10;3.33;;;19.30;99.90;;;;;;5030917;28;20033;-60
2022/07/19 02:05:39;;;;;;;8.88;3.28;;;19.20;99.90;;;;;;5028556;28;20037;-61
2022/07/19 02:08:05;;;;;;;5.00;3.58;;;19.20;99.90;;;;;;5031995;28;20133;-61
2022/07/19 02:10:30;;;;;;;6.28;3.00;;;19.10;99.90;;;;;;5030630;28;20067;-61
2022/07/19 02:12:56;;;;;;;5.38;3.35;;;19.10;99.90;;;;;;5031706;28;20113;-60
2022/07/19 02:15:21;;;;;;;5.15;3.10;;;19.10;99.90;;;;;;5033019;28;20021;-61
2022/07/19 02:17:47;;;;;;;5.30;3.03;;;19.10;99.90;;;;;;5041745;28;20113;-61
2022/07/19 02:20:13;;;;;;;7.20;3.60;;;19.00;99.90;;;;;;5040735;28;20074;-60
2022/07/19 02:22:39;;;;;;;5.50;3.20;;;19.00;99.90;;;;;;5031700;28;20040;-60
2022/07/19 02:25:05;;;;;;;6.70;3.80;;;19.00;99.90;;;;;;5032240;28;20454;-62
2022/07/19 02:27:30;;;;;;;5.40;3.55;;;19.10;99.90;;;;;;5030875;28;20033;-62
2022/07/19 02:29:56;;;;;;;5.97;3.72;;;18.80;99.90;;;;;;5034739;28;20485;-60
2022/07/19 02:32:21;;;;;;;8.25;3.45;;;19.00;99.90;;;;;;5041210;28;20029;-60
2022/07/19 02:34:47;;;;;;;7.15;3.72;;;18.90;99.90;;;;;;5031212;28;20245;-61
2022/07/19 02:37:13;;;;;;;6.32;3.67;;;19.10;99.90;;;;;;5028380;28;20036;-60
2022/07/19 02:39:38;;;;;;;5.28;3.50;;;19.00;99.90;;;;;;5032167;28;20063;-62
2022/07/19 02:42:04;;;;;;;5.88;3.92;;;18.90;99.90;;;;;;5028967;28;20025;-61
2022/07/19 02:44:29;;;;;;;5.57;3.45;;;18.90;99.90;;;;;;5039562;28;20526;-61
2022/07/19 02:46:55;;;;;;;5.97;3.88;;;18.90;99.90;;;;;;5029400;28;20040;-61
2022/07/19 02:49:20;;;;;;;7.53;3.70;;;18.80;99.90;;;;;;5041995;28;20030;-61
2022/07/19 02:51:47;;;;;;;5.93;3.60;;;18.90;99.90;;;;;;5027849;28;20079;-60
2022/07/19 02:54:13;;;;;;;6.78;3.47;;;18.80;99.90;;;;;;5038223;28;20247;-61
2022/07/19 02:56:38;;;;;;;5.35;3.50;;;18.80;99.90;;;;;;5039422;28;20017;-61
2022/07/19 02:59:04;;;;;;;6.47;3.60;;;18.90;99.90;;;;;;5031171;28;20101;-61
2022/07/19 03:01:30;;;;;;;7.90;3.35;;;18.90;99.90;;;;;;5027152;28;20371;-60
2022/07/19 03:03:57;;;;;;;8.30;3.70;;;18.80;99.90;;;;;;5036047;28;20112;-61
2022/07/19 03:06:22;;;;;;;9.05;3.55;;;18.70;99.90;;;;;;5030427;28;20034;-60
2022/07/19 03:08:48;;;;;;;10.02;3.92;;;18.70;99.90;;;;;;5030997;28;20034;-61
2022/07/19 03:11:14;;;;;;;7.32;3.60;;;18.70;99.90;;;;;;5032009;28;20032;-61
2022/07/19 03:13:39;;;;;;;7.18;3.72;;;18.70;99.90;;;;;;5034132;28;20067;-62
2022/07/19 03:16:06;;;;;;;9.38;3.58;;;18.60;99.90;;;;;;5038815;28;20117;-61
2022/07/19 03:18:32;;;;;;;5.45;3.50;;;;;;;;;;5045524;28;20025;-61
2022/07/19 03:20:58;;;;;;;8.38;4.00;;;18.80;99.90;;;;;;5030895;28;20067;-61
2022/07/19 03:23:30;;;;;;;9.05;3.35;;;18.50;99.90;;;;;;5027876;28;20025;-61
2022/07/19 03:25:55;;;;;;;9.40;3.63;;;18.60;99.90;;;;;;5036693;28;20031;-61
2022/07/19 03:28:22;;;;;;;6.40;3.47;;;;;;;;;;5029224;28;20017;-60
2022/07/19 03:30:48;;;;;;;7.65;3.90;;;18.40;99.90;;;;;;5029948;28;20032;-60
2022/07/19 03:33:15;;;;;;;4.70;3.60;;;18.40;99.90;;;;;;5026175;28;20589;-61
2022/07/19 03:35:42;;;;;;;7.03;3.70;;;;;;;;;;5032083;28;20685;-62
2022/07/19 03:38:09;;;;;;;7.47;3.67;;;18.30;99.90;;;;;;5029246;28;20024;-61
2022/07/19 03:40:34;;;;;;;5.82;4.05;;;18.40;99.90;;;;;;5034149;28;20496;-61
2022/07/19 03:43:00;;;;;;;4.95;3.78;;;18.40;99.90;;;;;;5025840;28;20025;-61
2022/07/19 03:45:25;;;;;;;6.75;3.63;;;18.40;99.90;;;;;;5031829;28;20031;-61
2022/07/19 03:47:52;;;;;;;8.07;3.58;;;;;;;;;;5031018;28;20128;-60
2022/07/19 03:50:19;;;;;;;8.00;3.63;;;;;;;;;;5048396;28;20095;-61
2022/07/19 03:52:45;;;;;;;6.20;3.38;;;18.30;99.90;;;;;;5030534;28;20037;-61
2022/07/19 03:55:11;;;;;;;7.90;3.80;;;;;;;;;;5028960;28;20036;-61
2022/07/19 03:57:37;;;;;;;7.32;4.10;;;18.20;99.90;;;;;;5034332;28;20056;-60
2022/07/19 04:00:04;;;;;;;7.70;3.72;;;18.40;99.90;;;;;;5025029;28;20049;-61
2022/07/19 04:02:29;;;;;;;7.70;4.10;;;18.30;99.90;;;;;;5028405;28;20025;-60
2022/07/19 04:04:56;;;;;;;7.25;4.05;;;;;;;;;;5028405;28;20115;-60
2022/07/19 04:07:22;;;;;;;6.07;3.92;;;18.10;99.90;;;;;;5036989;28;20159;-60
2022/07/19 04:09:47;;;;;;;6.63;4.05;;;18.30;99.90;;;;;;5041068;28;20115;-61
2022/07/19 04:12:13;;;;;;;8.25;4.20;;;18.30;99.90;;;;;;5042547;28;20116;-61
2022/07/19 04:14:38;;;;;;;6.43;4.40;;;18.30;99.90;;;;;;5035038;28;20051;-61
2022/07/19 04:17:04;;;;;;;7.18;3.85;;;18.30;99.90;;;;;;5040747;28;20018;-61
2022/07/19 04:19:30;;;;;;;7.38;3.92;;;;;;;;;;5038074;28;20337;-61
2022/07/19 04:21:57;;;;;;;7.90;3.63;;;;;;;;;;5030381;28;20036;-61
2022/07/19 04:24:24;;;;;;;7.13;3.97;;;;;;;;;;5026037;28;20057;-61
2022/07/19 04:26:50;;;;;;;10.02;4.10;;;17.80;99.90;;;;;;5036236;28;20033;-61
2022/07/19 04:29:16;;;;;;;8.18;4.22;;;;;;;;;;5031398;28;20110;-60
2022/07/19 04:31:44;;;;;;;7.90;3.75;;;18.30;99.90;;;;;;5027339;28;20057;-62
2022/07/19 04:34:10;;;;;;;6.35;3.90;;;;;;;;;;5026816;28;20029;-61
2022/07/19 04:36:36;;;;;;;6.63;3.80;;;18.40;99.90;;;;;;5031686;28;20025;-61
2022/07/19 04:39:02;;;;;;;8.30;4.38;;;;;;;;;;5031110;28;20353;-61
2022/07/19 04:41:28;;;;;;;6.32;4.18;;;18.30;99.90;;;;;;5030896;28;20320;-60
2022/07/19 04:43:53;;;;;;;6.60;4.03;;;18.40;99.90;;;;;;5024740;28;20029;-61
2022/07/19 04:46:20;;;;;;;7.80;4.20;;;;;;;;;;5033138;28;20704;-61
2022/07/19 04:48:45;;;;;;;6.78;4.10;;;18.40;99.90;;;;;;5042723;28;20052;-60
2022/07/19 04:51:11;;;;;;;7.50;4.13;;;18.40;99.90;;;;;;5024624;28;20736;-61
2022/07/19 04:53:36;;;;;;;5.78;4.00;;;18.60;99.90;;;;;;5030529;28;20489;-60
2022/07/19 04:56:02;;;;;;;6.82;4.35;;;18.60;99.90;;;;;;5036084;28;20025;-61
2022/07/19 04:58:28;;;;;;;9.32;4.15;;;18.70;99.90;;;;;;5028045;28;20680;-60
2022/07/19 05:00:53;;;;;;;6.72;3.90;;;18.70;99.90;;;;;;5026537;28;20389;-61
2022/07/19 05:03:20;;;;;;;8.25;4.03;;;;;;;;;;5030065;28;20682;-60
2022/07/19 05:05:47;;;;;;;6.53;3.72;;;;;;;;;;5026536;28;20056;-61
2022/07/19 05:08:15;;;;;;;7.60;3.65;;;;;;;;;;5031241;28;20504;-61
2022/07/19 05:10:45;;;;;;;6.03;3.58;;;;;;;;;;5025837;28;20163;-61
2022/07/19 05:13:13;;;;;;;6.93;4.15;;;;;;;;;;5037100;28;20029;-61
2022/07/19 05:15:39;;;;;;;7.03;3.75;;;19.10;99.90;;;;;;5028759;28;20036;-61
2022/07/19 05:18:04;;;;;;;10.65;4.25;;;19.50;99.90;;;;;;5041859;28;20213;-61
2022/07/19 05:20:30;;;;;;;7.25;4.13;;;19.70;99.90;;;;;;5030316;28;20064;-61
2022/07/19 05:22:55;;;;;;;6.80;3.75;;;19.60;99.90;;;;;;5035648;28;20078;-61
2022/07/19 05:25:21;;;;;;;6.18;4.18;;;19.80;99.90;;;;;;5026194;28;20112;-60
2022/07/19 05:27:47;;;;;;;7.90;4.28;;;20.10;99.90;;;;;;5034542;28;20037;-61
2022/07/19 05:30:13;;;;;;;9.48;3.70;;;20.00;99.90;;;;;;5029775;28;20039;-61
2022/07/19 05:32:38;;;;;;;9.23;4.07;;;20.20;99.90;;;;;;5038447;28;20308;-60
2022/07/19 05:35:04;;;;;;;10.40;4.03;;;20.30;99.90;;;;;;5029749;28;20037;-61
2022/07/19 05:37:30;;;;;;;10.63;4.15;;;20.40;99.90;;;;;;5038351;28;20033;-61
2022/07/19 05:39:55;;;;;;;10.88;4.60;;;20.40;99.90;;;;;;5027447;28;20027;-61
2022/07/19 05:42:21;;;;;;;9.88;4.63;;;20.60;99.90;;;;;;5037136;28;20037;-61
2022/07/19 05:44:46;;;;;;;10.00;4.40;;;20.80;99.90;;;;;;5032724;28;20603;-61
2022/07/19 05:47:12;;;;;;;10.23;4.00;;;21.00;99.90;;;;;;5037007;28;20449;-60
2022/07/19 05:49:37;;;;;;;14.00;4.30;;;21.00;99.90;;;;;;5033265;28;20401;-61
2022/07/19 05:52:03;;;;;;;11.88;3.83;;;21.10;99.90;;;;;;5033442;28;20026;-61
2022/07/19 05:54:29;;;;;;;12.95;3.78;;;21.30;99.90;;;;;;5030362;28;20024;-61
2022/07/19 05:56:54;;;;;;;11.35;3.75;;;21.30;99.90;;;;;;5042787;28;20028;-61
2022/07/19 05:59:22;;;;;;;9.02;3.85;;;21.50;99.90;;;;;;5041060;28;20025;-61
2022/07/19 06:01:49;;;;;;;7.78;3.72;;;21.60;99.90;;;;;;5029471;28;20541;-60
2022/07/19 06:04:14;;;;;;;10.23;3.83;;;21.70;99.90;;;;;;5040264;28;20033;-60
2022/07/19 06:06:40;;;;;;;10.63;4.05;;;21.70;99.90;;;;;;5028226;28;20029;-61
2022/07/19 06:09:07;;;;;;;8.48;3.63;;;21.90;99.90;;;;;;5035315;28;20057;-61
2022/07/19 06:11:33;;;;;;;12.73;3.85;;;22.00;99.90;;;;;;5027907;28;20025;-61
2022/07/19 06:13:59;;;;;;;6.60;3.60;;;22.10;99.90;;;;;;5039313;28;20056;-60
2022/07/19 06:16:25;;;;;;;7.97;3.88;;;22.30;99.90;;;;;;5032169;28;20507;-60
2022/07/19 06:18:51;;;;;;;8.75;3.17;;;22.30;99.90;;;;;;5041456;28;20036;-60
2022/07/19 06:21:18;;;;;;;8.98;3.38;;;22.30;99.90;;;;;;5027884;28;20542;-60
2022/07/19 06:23:44;;;;;;;6.45;2.90;;;22.60;99.90;;;;;;5030331;28;20067;-60
2022/07/19 06:26:11;;;;;;;8.15;2.67;;;22.60;99.90;;;;;;5033391;28;20508;-61
2022/07/19 06:28:37;;;;;;;10.07;3.15;;;22.70;99.90;;;;;;5031916;28;20583;-60
2022/07/19 06:31:03;;;;;;;6.22;2.40;;;22.80;99.90;;;;;;5032016;28;20110;-60
2022/07/19 06:33:29;;;;;;;13.15;2.58;;;22.90;99.90;;;;;;5029631;28;21060;-61
2022/07/19 06:35:55;;;;;;;8.43;2.75;;;23.00;99.90;;;;;;5034386;28;20070;-61
2022/07/19 06:38:21;;;;;;;9.32;2.40;;;23.10;99.90;;;;;;5031037;28;20029;-60
2022/07/19 06:40:47;;;;;;;9.55;2.17;;;23.20;99.90;;;;;;5042561;28;20571;-61
2022/07/19 06:43:12;;;;;;;12.48;2.40;;;23.30;99.90;;;;;;5028499;28;20029;-60
2022/07/19 06:45:38;;;;;;;4.60;2.10;;;23.40;99.90;;;;;;5041335;28;20152;-60
2022/07/19 06:48:05;;;;;;;10.30;2.20;;;23.50;99.90;;;;;;5030306;28;20060;-61
2022/07/19 06:50:30;;;;;;;6.32;2.60;;;23.60;99.90;;;;;;5029584;28;20040;-61
2022/07/19 06:52:56;;;;;;;7.10;2.22;;;23.70;99.90;;;;;;5032377;28;20034;-60
2022/07/19 06:55:22;;;;;;;6.10;2.40;;;23.90;99.90;;;;;;5030684;28;20055;-60
2022/07/19 06:57:48;;;;;;;4.80;2.15;;;24.00;99.90;;;;;;5037245;28;20100;-60
2022/07/19 07:00:14;;;;;;;8.98;2.20;;;24.10;99.90;;;;;;5033752;28;20097;-62
2022/07/19 07:02:40;;;;;;;6.93;2.90;;;24.10;99.90;;;;;;5031455;28;20017;-61
2022/07/19 07:05:08;;;;;;;6.75;2.50;;;24.30;99.90;;;;;;5038952;28;20038;-62
2022/07/19 07:07:34;;;;;;;7.93;2.38;;;24.30;99.90;;;;;;5026403;28;20025;-61
2022/07/19 07:10:01;;;;;;;9.60;2.40;;;24.50;99.90;;;;;;5030135;28;20083;-62
2022/07/19 07:12:28;;;;;;;7.30;2.70;;;24.60;99.90;;;;;;5036500;28;20467;-61
2022/07/19 07:14:54;;;;;;;5.10;2.67;;;24.70;99.90;;;;;;5034587;28;20329;-61
2022/07/19 07:17:19;;;;;;;7.32;2.40;;;24.70;99.90;;;;;;5039170;28;20034;-61
2022/07/19 07:19:45;;;;;;;8.60;2.08;;;24.90;99.90;;;;;;5038671;28;20021;-62
2022/07/19 07:22:10;;;;;;;19.35;13.00;;;25.00;99.90;;;;;;5027110;28;20033;-62
2022/07/19 07:24:36;;;;;;;128.35;99.93;;;25.10;99.90;;;;;;5035656;28;20558;-61
2022/07/19 07:27:02;;;;;;;9.75;3.80;;;25.10;99.90;;;;;;5036986;28;20435;-62
2022/07/19 07:29:27;;;;;;;9.57;3.72;;;25.20;99.90;;;;;;5027705;28;20603;-62
2022/07/19 07:31:53;;;;;;;11.15;3.28;;;;;;;;;;5031315;28;20062;-61
2022/07/19 07:34:19;;;;;;;11.20;4.22;;;;;;;;;;5028997;28;20776;-60
2022/07/19 07:36:45;;;;;;;11.85;3.60;;;;;;;;;;5034229;28;20029;-61
2022/07/19 07:39:12;;;;;;;7.32;3.50;;;;;;;;;;5031341;28;20021;-60
2022/07/19 07:41:38;;;;;;;8.07;3.05;;;;;;;;;;5030544;28;20075;-61
2022/07/19 07:44:04;;;;;;;10.35;3.17;;;;;;;;;;5027433;28;20262;-61
2022/07/19 07:46:30;;;;;;;12.73;3.78;;;;;;;;;;5031784;28;20037;-61
2022/07/19 07:48:56;;;;;;;8.93;3.20;;;;;;;;;;5034014;28;20120;-61
2022/07/19 07:51:22;;;;;;;11.90;3.15;;;;;;;;;;5032972;28;20175;-62
2022/07/19 07:53:48;;;;;;;9.15;3.15;;;;;;;;;;5037198;28;20025;-60
2022/07/19 07:56:14;;;;;;;7.03;2.90;;;;;;;;;;5039200;28;20020;-61
2022/07/19 07:58:40;;;;;;;13.15;3.42;;;;;;;;;;5035833;28;20408;-61
2022/07/19 08:01:06;;;;;;;12.93;3.10;;;;;;;;;;5033220;28;20041;-61
2022/07/19 08:03:32;;;;;;;13.70;2.88;;;;;;;;;;5026141;28;20033;-62
2022/07/19 08:05:58;;;;;;;11.13;3.35;;;;;;;;;;5029889;28;20035;-62
2022/07/19 08:08:26;;;;;;;11.27;3.17;;;;;;;;;;5028769;28;20520;-61
2022/07/19 08:10:53;;;;;;;14.27;3.30;;;26.70;99.90;;;;;;5030471;28;20598;-61
2022/07/19 08:13:18;;;;;;;12.30;7.20;;;26.60;99.90;;;;;;5029219;28;20164;-62
2022/07/19 08:15:44;;;;;;;11.18;3.33;;;26.80;99.90;;;;;;5038234;28;20771;-61
2022/07/19 08:18:10;;;;;;;11.93;3.80;;;26.70;99.90;;;;;;5044416;28;20096;-62
2022/07/19 08:20:35;;;;;;;8.77;3.05;;;27.00;99.90;;;;;;5033236;28;20017;-62
2022/07/19 08:23:01;;;;;;;8.20;2.85;;;27.00;99.90;;;;;;5036373;28;20025;-61
2022/07/19 08:25:27;;;;;;;11.73;3.17;;;27.40;99.90;;;;;;5027568;28;20100;-62
2022/07/19 08:27:53;;;;;;;10.45;3.00;;;27.40;99.90;;;;;;5032110;28;20111;-60
2022/07/19 08:30:18;;;;;;;13.07;3.10;;;27.20;99.90;;;;;;5030013;28;20399;-61
2022/07/19 08:32:44;;;;;;;13.43;3.40;;;27.30;99.90;;;;;;5029157;28;20029;-60
2022/07/19 08:35:10;;;;;;;11.50;3.00;;;27.40;99.90;;;;;;5026553;28;20405;-61
2022/07/19 08:37:36;;;;;;;13.30;2.95;;;27.50;99.90;;;;;;5030092;28;20022;-61
2022/07/19 08:40:05;;;;;;;14.20;2.78;;;27.60;99.90;;;;;;5027319;28;20029;-61
2022/07/19 08:42:31;;;;;;;12.25;3.20;;;27.40;99.90;;;;;;5034277;28;20099;-62
2022/07/19 08:45:00;;;;;;;10.38;3.08;;;26.50;99.90;;;;;;5023478;28;20029;-62
2022/07/19 08:47:27;;;;;;;6.68;2.97;;;28.00;99.90;;;;;;5040309;28;20241;-62
2022/07/19 08:49:54;;;;;;;6.85;3.00;;;28.20;99.90;;;;;;5031905;28;20692;-61
2022/07/19 08:52:19;;;;;;;5.15;2.90;;;28.20;99.90;;;;;;5032014;28;20057;-61
2022/07/19 08:54:45;;;;;;;8.38;2.67;;;28.00;99.90;;;;;;5043355;28;20696;-62
2022/07/19 08:59:55;;;;;;;8.45;2.70;;;28.80;99.90;;;;;;5025103;28;20033;-62
2022/07/19 09:02:20;;;;;;;6.68;2.55;;;28.90;99.90;;;;;;5029439;28;20363;-62
2022/07/19 09:05:07;;;;;;;8.70;2.90;;;29.00;99.90;;;;;;5035513;28;20397;-61
2022/07/19 09:07:53;;;;;;;9.15;2.72;;;29.00;99.90;;;;;;5028951;28;20037;-62
2022/07/19 09:10:21;;;;;;;5.75;2.70;;;28.90;99.90;;;;;;5032025;28;20061;-62
2022/07/19 09:13:07;;;;;;;9.60;2.72;;;29.30;99.90;;;;;;5024822;28;20409;-63
2022/07/19 09:15:47;;;;;;;6.40;2.75;;;29.30;99.90;;;;;;5027139;28;21027;-62
2022/07/19 09:18:20;;;;;;;7.50;3.05;;;29.70;99.90;;;;;;5044642;28;20057;-62
2022/07/19 09:20:50;;;;;;;6.72;2.58;;;29.50;99.90;;;;;;5035483;28;20029;-61
2022/07/19 09:23:16;;;;;;;6.15;2.60;;;;;;;;;;5036391;28;20501;-62
2022/07/19 09:25:56;;;;;;;9.68;2.80;;;29.80;99.90;;;;;;5030955;28;20026;-62
2022/07/19 09:28:25;;;;;;;8.60;2.72;;;29.70;99.90;;;;;;5026215;28;20033;-62
2022/07/19 09:30:54;;;;;;;6.18;2.60;;;29.60;99.90;;;;;;5030188;28;20065;-62
2022/07/19 09:33:22;;;;;;;5.68;3.05;;;29.80;99.90;;;;;;5028153;28;20489;-61
2022/07/19 09:35:50;;;;;;;7.45;2.90;;;29.80;99.90;;;;;;5027361;28;20022;-60
2022/07/19 09:38:20;;;;;;;5.82;2.42;;;29.90;99.90;;;;;;5026840;28;20028;-60
2022/07/19 09:40:47;;;;;;;9.35;2.83;;;29.90;99.90;;;;;;5025148;28;20021;-61
2022/07/19 09:43:13;;;;;;;8.40;2.85;;;29.90;99.90;;;;;;5036858;28;20125;-60
2022/07/19 09:45:39;;;;;;;6.90;2.47;;;29.90;99.90;;;;;;5029131;28;20138;-59
2022/07/19 09:48:05;;;;;;;8.32;2.60;;;30.10;99.90;;;;;;5034583;28;20508;-60
2022/07/19 09:50:31;;;;;;;5.95;2.50;;;30.10;99.90;;;;;;5033492;28;20025;-59
2022/07/19 09:53:03;;;;;;;6.07;2.45;;;30.30;99.90;;;;;;5030438;28;20584;-60
2022/07/19 09:55:28;;;;;;;6.00;2.38;;;30.60;99.90;;;;;;5029767;28;20044;-61
2022/07/19 09:57:56;;;;;;;5.88;2.58;;;30.50;99.90;;;;;;5030589;28;20385;-59
2022/07/19 10:00:24;;;;;;;5.72;2.35;;;30.70;99.90;;;;;;5026182;28;20536;-59
2022/07/19 10:02:56;;;;;;;10.93;2.63;;;30.60;99.90;;;;;;5026718;28;20021;-59
2022/07/19 10:05:24;;;;;;;4.97;2.22;;;30.70;99.90;;;;;;5028233;28;20041;-59
2022/07/19 10:07:50;;;;;;;8.32;2.55;;;31.00;99.90;;;;;;5025978;28;20029;-61
2022/07/19 10:10:17;;;;;;;6.30;2.50;;;31.00;99.90;;;;;;5046210;28;20044;-60
2022/07/19 10:12:45;;;;;;;5.60;2.50;;;30.90;99.90;;;;;;5027354;28;20038;-59
2022/07/19 10:15:12;;;;;;;7.55;2.35;;;31.20;97.90;;;;;;5043631;28;20130;-59
2022/07/19 10:18:03;;;;;;;8.30;2.50;;;31.40;99.90;;;;;;5046498;28;20054;-60
2022/07/19 10:20:29;;;;;;;9.32;2.70;;;31.30;99.90;;;;;;5046302;28;20060;-59
2022/07/19 10:23:02;;;;;;;6.72;2.67;;;31.50;96.20;;;;;;5045250;28;20031;-60
2022/07/19 10:25:47;;;;;;;;;;;31.50;94.90;;;;;;5030038;28;20763;-60
2022/07/19 10:28:34;;;;;;;7.07;2.65;;;31.60;95.80;;;;;;5027857;28;20202;-60
2022/07/19 10:31:00;;;;;;;7.30;2.50;;;31.50;95.90;;;;;;5027648;28;20048;-59
2022/07/19 10:33:28;;;;;;;8.05;2.75;;;31.50;99.90;;;;;;5036701;28;20044;-59
2022/07/19 10:35:54;;;;;;;12.20;2.70;;;31.70;96.80;;;;;;5028359;28;20033;-59
2022/07/19 10:38:19;;;;;;;6.40;2.50;;;31.60;96.00;;;;;;5034162;28;20668;-60
2022/07/19 10:40:50;;;;;;;5.05;2.50;;;31.50;92.80;;;;;;5032871;28;20025;-61
2022/07/19 10:43:20;;;;;;;8.88;2.78;;;31.90;95.80;;;;;;5042239;28;20535;-59
2022/07/19 10:46:04;;;;;;;5.53;2.53;;;31.70;95.00;;;;;;5034055;28;20089;-59
2022/07/19 10:48:47;;;;;;;5.72;2.30;;;31.60;93.70;;;;;;5038093;28;20545;-60
2022/07/19 10:51:28;;;;;;;9.73;2.72;;;31.90;91.20;;;;;;5038100;28;20037;-60
2022/07/19 10:54:03;;;;;;;5.05;2.45;;;31.80;91.30;;;;;;5030078;28;20046;-60
2022/07/19 10:56:34;;;;;;;4.95;2.10;;;31.90;88.70;;;;;;5035635;28;20112;-60
2022/07/19 10:59:07;;;;;;;6.65;2.03;;;32.00;84.50;;;;;;5026627;28;20670;-60
2022/07/19 11:01:33;;;;;;;;;;;32.10;84.70;;;;;;5031011;28;20033;-62
2022/07/19 11:04:22;;;;;;;8.02;2.50;;;32.10;88.90;;;;;;5027930;28;20069;-62
2022/07/19 11:06:49;;;;;;;7.57;2.10;;;32.00;89.00;;;;;;5038578;28;20033;-62
2022/07/19 11:09:14;;;;;;;7.38;2.20;;;32.30;82.60;;;;;;5032259;28;20581;-62
2022/07/19 11:11:40;;;;;;;6.82;2.40;;;32.40;88.90;;;;;;5029147;28;20120;-62
2022/07/19 11:14:05;;;;;;;4.65;2.40;;;32.30;82.60;;;;;;5038877;28;20024;-63
2022/07/19 11:16:31;;;;;;;6.28;2.60;;;32.30;79.20;;;;;;5036084;28;20118;-62
2022/07/19 11:19:08;;;;;;;4.50;1.90;;;32.30;77.70;;;;;;5054025;28;20484;-61
2022/07/19 11:21:36;;;;;;;7.57;2.17;;;32.40;81.10;;;;;;5042732;28;20033;-61
2022/07/19 11:24:04;;;;;;;7.97;2.25;;;32.30;79.50;;;;;;5040658;28;20040;-62
2022/07/19 11:26:38;;;;;;;5.72;2.42;;;32.30;75.80;;;;;;5028853;28;20040;-61
2022/07/19 11:29:03;;;;;;;5.50;1.92;;;32.30;78.10;;;;;;5039524;28;20029;-62
2022/07/19 11:31:29;;;;;;;5.03;2.20;;;32.60;74.80;;;;;;5029209;28;20033;-62
2022/07/19 11:33:57;;;;;;;5.55;2.10;;;32.60;76.20;;;;;;5030230;28;20090;-62
2022/07/19 11:36:24;;;;;;;3.58;2.28;;;32.50;75.70;;;;;;5030000;28;20029;-60
2022/07/19 11:38:51;;;;;;;6.43;1.98;;;32.60;79.10;;;;;;5038776;28;20086;-60
2022/07/19 11:41:29;;;;;;;5.90;2.05;;;32.90;76.50;;;;;;5031997;28;20022;-59
2022/07/19 11:44:14;;;;;;;3.67;1.90;;;32.70;76.60;;;;;;5029147;28;20037;-60
2022/07/19 11:46:41;;;;;;;4.38;1.80;;;32.90;77.90;;;;;;5036358;28;20408;-60
2022/07/19 11:49:09;;;;;;;3.13;1.73;;;32.90;76.80;;;;;;5042437;28;20017;-59
2022/07/19 11:51:35;;;;;;;7.05;2.10;;;32.80;75.60;;;;;;5044149;28;20063;-61
2022/07/19 11:54:02;;;;;;;4.43;2.03;;;33.10;77.30;;;;;;5028119;28;20065;-60
2022/07/19 11:56:30;;;;;;;4.70;2.17;;;32.90;78.40;;;;;;5027822;28;20051;-59
2022/07/19 11:59:01;;;;;;;4.93;1.98;;;32.90;73.80;;;;;;5025912;28;20057;-60
2022/07/19 12:01:46;;;;;;;7.82;2.03;;;32.90;74.30;;;;;;5029724;28;20048;-60
2022/07/19 12:04:12;;;;;;;3.15;1.77;;;32.80;73.90;;;;;;5028113;28;20038;-58
2022/07/19 12:06:44;;;;;;;5.82;1.98;;;32.90;72.70;;;;;;5031864;28;20029;-59
2022/07/19 12:09:18;;;;;;;5.05;2.10;;;32.90;75.10;;;;;;5026492;28;20396;-60
2022/07/19 12:11:47;;;;;;;4.57;1.80;;;33.00;73.20;;;;;;5030855;28;20437;-60
2022/07/19 12:14:24;;;;;;;7.10;2.20;;;33.60;70.50;;;;;;5039517;28;20029;-59
2022/07/19 12:17:28;;;;;;;4.65;2.10;;;33.40;72.00;;;;;;5036855;28;20024;-60
2022/07/19 12:20:06;;;;;;;;;;;33.30;72.40;;;;;;5041242;28;20112;-61
2022/07/19 12:22:38;;;;;;;5.78;2.13;;;33.10;71.00;;;;;;5037694;28;19912;-59
2022/07/19 12:25:05;;;;;;;3.33;2.05;;;33.40;70.40;;;;;;5033642;28;20029;-60
2022/07/19 12:27:32;;;;;;;4.82;2.00;;;33.30;70.30;;;;;;5024759;28;20036;-60
2022/07/19 12:29:58;;;;;;;5.22;2.00;;;33.30;74.80;;;;;;5029052;28;20079;-59
2022/07/19 12:32:27;;;;;;;3.97;1.90;;;33.10;72.80;;;;;;5027241;28;20485;-60
2022/07/19 12:35:03;;;;;;;7.43;2.15;;;33.50;70.30;;;;;;5028821;28;20065;-59
2022/07/19 12:37:46;;;;;;;5.82;2.40;;;33.40;71.50;;;;;;5030600;28;20370;-60
2022/07/19 12:40:13;;;;;;;;;;;33.50;72.50;;;;;;5028310;28;20017;-60
2022/07/19 12:42:43;;;;;;;6.75;2.10;;;33.70;72.10;;;;;;5028244;28;19908;-61
2022/07/19 12:45:20;;;;;;;9.18;2.20;;;33.50;72.60;;;;;;5027803;28;20044;-61
2022/07/19 12:47:47;;;;;;;7.28;2.47;;;33.30;71.00;;;;;;5036388;28;20436;-59
2022/07/19 12:50:29;;;;;;;3.80;2.10;;;33.50;69.20;;;;;;5026279;28;20099;-60
2022/07/19 12:52:57;;;;;;;8.05;2.20;;;33.40;70.50;;;;;;5029500;28;20036;-60
2022/07/19 12:55:25;;;;;;;7.65;2.25;;;33.30;69.60;;;;;;5030742;28;20026;-60
2022/07/19 12:57:51;;;;;;;7.75;2.50;;;33.40;64.90;;;;;;5028312;28;20041;-59
2022/07/19 13:00:19;;;;;;;9.00;2.30;;;33.40;71.10;;;;;;5026751;28;20030;-59
2022/07/19 13:02:46;;;;;;;7.10;2.20;;;33.20;68.20;;;;;;5029094;28;20025;-60